createdAt,value
2022-10-21T00:02:05.773Z,3.90
2022-10-21T00:04:33.745Z,3.43
2022-10-21T00:07:01.070Z,3.00
2022-10-21T00:09:28.307Z,4.30
2022-10-21T00:11:55.592Z,2.97
2022-10-21T00:14:22.841Z,3.93
2022-10-21T00:16:50.103Z,4.33
2022-10-21T00:19:17.391Z,3.57
2022-10-21T00:21:44.696Z,2.93
2022-10-21T00:24:11.977Z,4.32
2022-10-21T00:26:39.237Z,3.20
2022-10-21T00:29:06.581Z,4.90
2022-10-21T00:31:34.788Z,7.50
2022-10-21T00:34:02.130Z,3.40
2022-10-21T00:36:29.387Z,3.77
2022-10-21T00:38:57.380Z,4.37
2022-10-21T00:41:24.645Z,2.60
2022-10-21T00:44:00.242Z,3.53
2022-10-21T00:46:39.539Z,4.45
2022-10-21T00:49:08.851Z,4.00
2022-10-21T00:51:36.947Z,3.30
2022-10-21T00:54:05.149Z,2.80
2022-10-21T00:56:33.325Z,4.60
2022-10-21T00:59:01.800Z,4.17
2022-10-21T01:01:29.151Z,3.77
2022-10-21T01:03:56.504Z,3.63
2022-10-21T01:06:24.705Z,4.83
2022-10-21T01:08:54.618Z,4.33
2022-10-21T01:11:22.996Z,3.53
2022-10-21T01:14:14.345Z,2.93
2022-10-21T01:16:44.286Z,4.17
2022-10-21T01:19:20.542Z,3.03
2022-10-21T01:21:52.527Z,3.90
2022-10-21T01:24:38.056Z,3.13
2022-10-21T01:27:17.538Z,4.40
2022-10-21T01:30:04.906Z,3.70
2022-10-21T01:32:50.900Z,3.27
2022-10-21T01:35:21.908Z,3.23
2022-10-21T01:38:09.505Z,5.28
2022-10-21T01:40:39.898Z,3.63
2022-10-21T01:43:27.422Z,3.23
2022-10-21T01:46:01.537Z,2.93
2022-10-21T01:48:31.469Z,3.00
2022-10-21T01:51:02.940Z,3.27
2022-10-21T01:53:31.967Z,4.77
2022-10-21T01:55:59.965Z,4.88
2022-10-21T01:58:30.244Z,2.40
2022-10-21T02:00:58.939Z,3.70
2022-10-21T02:03:30.708Z,3.03
2022-10-21T02:05:58.038Z,3.03
2022-10-21T02:08:25.550Z,3.33
2022-10-21T02:10:54.830Z,2.60
2022-10-21T02:13:25.403Z,5.93
2022-10-21T02:15:57.283Z,2.13
2022-10-21T02:18:25.684Z,2.70
2022-10-21T02:20:58.163Z,2.63
2022-10-21T02:23:31.662Z,3.03
2022-10-21T02:25:59.041Z,5.10
2022-10-21T02:28:26.310Z,3.87
2022-10-21T02:31:05.628Z,2.33
2022-10-21T02:33:44.722Z,2.93
2022-10-21T02:36:17.007Z,3.73
2022-10-21T02:38:52.182Z,3.43
2022-10-21T02:41:21.714Z,3.13
2022-10-21T02:43:48.958Z,4.30
2022-10-21T02:46:16.403Z,2.93
2022-10-21T02:48:45.044Z,3.60
2022-10-21T02:51:12.649Z,5.07
2022-10-21T02:53:40.063Z,2.73
2022-10-21T02:56:07.478Z,2.60
2022-10-21T02:58:35.007Z,2.40
2022-10-21T03:01:02.296Z,2.50
2022-10-21T03:03:29.978Z,3.47
2022-10-21T03:05:57.923Z,2.27
2022-10-21T03:08:25.303Z,2.57
2022-10-21T03:10:53.511Z,2.63
2022-10-21T03:13:21.625Z,3.43
2022-10-21T03:15:49.351Z,3.67
2022-10-21T03:18:16.956Z,3.10
2022-10-21T03:20:44.216Z,3.73
2022-10-21T03:23:11.512Z,3.10
2022-10-21T03:25:38.806Z,2.53
2022-10-21T03:28:06.114Z,4.53
2022-10-21T03:30:33.409Z,3.37
2022-10-21T03:33:00.663Z,3.20
2022-10-21T03:35:28.434Z,3.03
2022-10-21T03:37:58.708Z,3.33
2022-10-21T03:40:30.005Z,5.97
2022-10-21T03:43:00.685Z,2.90
2022-10-21T03:45:28.010Z,2.50
2022-10-21T03:47:55.413Z,2.20
2022-10-21T03:50:26.032Z,2.77
2022-10-21T03:52:54.114Z,3.57
2022-10-21T03:55:24.073Z,1.93
2022-10-21T03:57:51.436Z,2.10
2022-10-21T04:00:18.776Z,2.30
2022-10-21T04:02:46.113Z,2.20
2022-10-21T04:05:13.472Z,2.97
2022-10-21T04:07:40.826Z,2.63
2022-10-21T04:10:08.356Z,2.80
2022-10-21T04:12:36.156Z,2.77
2022-10-21T04:15:03.811Z,2.17
2022-10-21T04:17:31.065Z,3.03
2022-10-21T04:19:58.371Z,2.57
2022-10-21T04:22:25.715Z,2.67
2022-10-21T04:24:52.980Z,3.60
2022-10-21T04:27:20.286Z,2.23
2022-10-21T04:29:47.542Z,3.47
2022-10-21T04:32:14.877Z,2.93
2022-10-21T04:34:42.839Z,2.30
2022-10-21T04:37:10.138Z,4.13
2022-10-21T04:39:37.402Z,3.10
2022-10-21T04:42:04.722Z,2.60
2022-10-21T04:44:32.179Z,2.90
2022-10-21T04:46:59.427Z,2.13
2022-10-21T04:49:26.685Z,2.10
2022-10-21T04:51:54.008Z,3.70
2022-10-21T04:54:21.388Z,4.15
2022-10-21T04:56:48.748Z,2.57
2022-10-21T04:59:16.017Z,3.23
2022-10-21T05:01:43.269Z,2.53
2022-10-21T05:04:10.627Z,2.40
2022-10-21T05:06:37.905Z,3.23
2022-10-21T05:09:05.250Z,2.97
2022-10-21T05:11:32.666Z,2.23
2022-10-21T05:13:59.905Z,4.17
2022-10-21T05:16:27.223Z,2.40
2022-10-21T05:18:54.486Z,3.33
2022-10-21T05:21:21.834Z,2.33
2022-10-21T05:23:49.111Z,2.43
2022-10-21T05:26:16.419Z,3.10
2022-10-21T05:28:43.716Z,5.27
2022-10-21T05:31:11.029Z,2.67
2022-10-21T05:33:38.350Z,2.60
2022-10-21T05:36:08.501Z,3.33
2022-10-21T05:38:35.874Z,3.17
2022-10-21T05:41:03.246Z,3.60
2022-10-21T05:43:30.572Z,2.23
2022-10-21T05:45:57.972Z,2.43
2022-10-21T05:48:25.653Z,2.23
2022-10-21T05:50:53.871Z,2.57
2022-10-21T05:53:21.727Z,2.57
2022-10-21T05:55:56.010Z,2.47
2022-10-21T05:58:24.042Z,2.50
2022-10-21T06:00:52.078Z,2.53
2022-10-21T06:03:19.627Z,3.43
2022-10-21T06:05:46.894Z,2.33
2022-10-21T06:08:14.224Z,2.63
2022-10-21T06:10:41.499Z,2.20
2022-10-21T06:13:08.752Z,3.20
2022-10-21T06:15:37.203Z,1.77
2022-10-21T06:18:04.530Z,2.77
2022-10-21T06:20:31.835Z,2.77
2022-10-21T06:23:01.941Z,2.63
2022-10-21T06:25:29.453Z,2.93
2022-10-21T06:27:56.713Z,3.30
2022-10-21T06:30:24.066Z,2.63
2022-10-21T06:32:51.476Z,3.23
2022-10-21T06:35:18.782Z,2.60
2022-10-21T06:37:46.248Z,3.43
2022-10-21T06:40:13.510Z,2.20
2022-10-21T06:42:40.879Z,3.10
2022-10-21T06:45:08.314Z,2.70
2022-10-21T06:47:35.838Z,2.50
2022-10-21T06:50:03.594Z,2.70
2022-10-21T06:52:31.600Z,3.10
2022-10-21T06:54:58.942Z,2.73
2022-10-21T06:57:27.714Z,2.43
2022-10-21T06:59:54.953Z,2.00
2022-10-21T07:02:24.140Z,1.73
2022-10-21T07:04:52.794Z,3.00
2022-10-21T07:07:20.408Z,2.03
2022-10-21T07:09:47.779Z,2.97
2022-10-21T07:12:15.102Z,2.87
2022-10-21T07:14:42.437Z,2.23
2022-10-21T07:17:09.812Z,3.58
2022-10-21T07:19:37.073Z,2.80
2022-10-21T07:22:04.336Z,3.17
2022-10-21T07:24:31.641Z,1.80
2022-10-21T07:26:58.941Z,3.00
2022-10-21T07:29:26.233Z,2.07
2022-10-21T07:31:53.719Z,2.20
2022-10-21T07:34:21.162Z,3.07
2022-10-21T07:36:49.499Z,2.35
2022-10-21T07:39:18.021Z,2.70
2022-10-21T07:41:50.009Z,2.20
2022-10-21T07:44:18.204Z,2.43
2022-10-21T07:46:46.370Z,2.13
2022-10-21T07:49:14.242Z,2.40
2022-10-21T07:51:41.578Z,3.00
2022-10-21T07:54:09.042Z,2.40
2022-10-21T07:56:37.951Z,3.00
2022-10-21T07:59:10.237Z,3.50
2022-10-21T08:01:44.010Z,2.67
2022-10-21T08:04:11.843Z,2.47
2022-10-21T08:06:39.116Z,5.43
2022-10-21T08:09:06.445Z,2.60
2022-10-21T08:11:34.422Z,3.17
2022-10-21T08:14:03.173Z,2.83
2022-10-21T08:16:30.528Z,3.40
2022-10-21T08:19:00.747Z,2.93
2022-10-21T08:21:29.154Z,2.60
2022-10-21T08:23:56.464Z,3.10
2022-10-21T08:26:23.923Z,2.90
2022-10-21T08:28:51.302Z,3.13
2022-10-21T08:31:20.336Z,3.03
2022-10-21T08:33:47.708Z,2.50
2022-10-21T08:36:14.992Z,3.97
2022-10-21T08:38:42.302Z,3.00
2022-10-21T08:41:28.649Z,3.07
2022-10-21T08:44:15.207Z,2.13
2022-10-21T08:46:45.761Z,2.07
2022-10-21T08:49:21.738Z,2.63
2022-10-21T08:51:54.846Z,3.20
2022-10-21T08:54:25.093Z,2.87
2022-10-21T08:56:55.809Z,2.50
2022-10-21T08:59:24.331Z,2.70
2022-10-21T09:02:00.740Z,3.50
2022-10-21T09:04:31.050Z,2.17
2022-10-21T09:07:04.171Z,5.10
2022-10-21T09:09:41.877Z,2.07
2022-10-21T09:12:12.682Z,2.20
2022-10-21T09:14:48.636Z,3.03
2022-10-21T09:17:18.320Z,3.70
2022-10-21T09:19:48.657Z,2.63
2022-10-21T09:22:35.341Z,2.50
2022-10-21T09:25:03.273Z,1.90
2022-10-21T09:27:51.504Z,2.70
2022-10-21T09:30:21.935Z,2.00
2022-10-21T09:32:50.941Z,2.47
2022-10-21T09:35:27.998Z,3.33
2022-10-21T09:38:09.054Z,4.10
2022-10-21T09:40:36.344Z,4.00
2022-10-21T09:43:16.585Z,2.63
2022-10-21T09:45:45.326Z,2.73
2022-10-21T09:48:18.374Z,2.93
2022-10-21T09:50:53.593Z,2.30
2022-10-21T09:53:25.633Z,3.50
2022-10-21T09:55:59.149Z,4.87
2022-10-21T09:58:46.085Z,3.03
2022-10-21T10:01:17.964Z,2.03
2022-10-21T10:03:46.278Z,1.60
2022-10-21T10:06:13.967Z,2.13
2022-10-21T10:08:47.283Z,3.07
2022-10-21T10:11:17.134Z,2.40
2022-10-21T10:13:48.312Z,2.43
2022-10-21T10:16:18.731Z,2.17
2022-10-21T10:18:46.170Z,2.10
2022-10-21T10:21:15.255Z,1.83
2022-10-21T10:23:46.866Z,2.07
2022-10-21T10:26:31.110Z,1.93
2022-10-21T10:29:01.339Z,1.90
2022-10-21T10:31:30.787Z,1.80
2022-10-21T10:34:00.128Z,2.17
2022-10-21T10:36:29.519Z,2.73
2022-10-21T10:38:58.190Z,2.27
2022-10-21T10:41:32.803Z,2.30
2022-10-21T10:44:00.235Z,1.90
2022-10-21T10:46:29.228Z,3.40
2022-10-21T10:48:58.242Z,2.10
2022-10-21T10:51:27.664Z,2.03
2022-10-21T10:54:07.418Z,2.00
2022-10-21T10:56:40.686Z,2.30
2022-10-21T10:59:26.635Z,5.73
2022-10-21T11:02:01.019Z,2.17
2022-10-21T11:04:31.065Z,1.90
2022-10-21T11:07:03.031Z,2.43
2022-10-21T11:09:32.110Z,1.77
2022-10-21T11:11:59.523Z,2.30
2022-10-21T11:14:26.936Z,1.97
2022-10-21T11:17:01.092Z,1.80
2022-10-21T11:19:37.873Z,1.67
2022-10-21T11:22:11.262Z,2.27
2022-10-21T11:24:52.431Z,2.37
2022-10-21T11:27:22.893Z,2.13
2022-10-21T11:29:59.137Z,2.70
2022-10-21T11:32:26.422Z,2.57
2022-10-21T11:35:12.351Z,1.70
2022-10-21T11:37:53.583Z,1.53
2022-10-21T11:40:44.010Z,1.70
2022-10-21T11:43:11.319Z,1.83
2022-10-21T11:45:42.049Z,2.20
2022-10-21T11:48:18.285Z,1.87
2022-10-21T11:51:06.144Z,1.57
2022-10-21T11:53:53.941Z,1.73
2022-10-21T11:56:26.678Z,1.90
2022-10-21T11:58:54.057Z,1.60
2022-10-21T12:01:29.681Z,1.40
2022-10-21T12:03:56.954Z,1.53
2022-10-21T12:06:27.041Z,1.90
2022-10-21T12:09:02.368Z,1.80
2022-10-21T12:11:40.015Z,1.47
2022-10-21T12:14:14.198Z,1.60
2022-10-21T12:16:41.985Z,1.40
2022-10-21T12:19:11.814Z,1.80
2022-10-21T12:21:40.089Z,3.57
2022-10-21T12:24:12.431Z,1.30
2022-10-21T12:26:58.045Z,2.17
2022-10-21T12:29:25.316Z,2.60
2022-10-21T12:31:57.024Z,2.37
2022-10-21T12:34:24.952Z,1.23
2022-10-21T12:36:54.746Z,1.83
2022-10-21T12:39:34.375Z,1.50
2022-10-21T12:42:06.038Z,1.40
2022-10-21T12:44:33.755Z,1.50
2022-10-21T12:47:20.870Z,1.53
2022-10-21T12:50:03.455Z,2.17
2022-10-21T12:52:30.793Z,1.40
2022-10-21T12:55:02.639Z,2.00
2022-10-21T12:57:35.564Z,1.23
2022-10-21T13:00:21.824Z,1.87
2022-10-21T13:02:59.971Z,1.63
2022-10-21T13:05:39.279Z,2.93
2022-10-21T13:08:27.061Z,1.33
2022-10-21T13:11:03.868Z,1.73
2022-10-21T13:13:34.099Z,1.30
2022-10-21T13:16:02.418Z,1.50
2022-10-21T13:18:48.570Z,2.20
2022-10-21T13:21:34.122Z,1.07
2022-10-21T13:24:13.626Z,1.53
2022-10-21T13:26:55.805Z,1.40
2022-10-21T13:29:38.455Z,1.60
2022-10-21T13:32:11.950Z,1.53
2022-10-21T13:34:42.349Z,2.30
2022-10-21T13:37:15.742Z,1.37
2022-10-21T13:39:43.769Z,1.50
2022-10-21T13:42:16.708Z,1.40
2022-10-21T13:44:51.606Z,1.60
2022-10-21T13:47:28.200Z,1.33
2022-10-21T13:49:56.862Z,1.37
2022-10-21T13:52:30.816Z,1.27
2022-10-21T13:54:59.081Z,1.30
2022-10-21T13:57:30.464Z,1.27
2022-10-21T14:00:02.448Z,3.73
2022-10-21T14:02:32.191Z,0.90
2022-10-21T14:04:59.482Z,1.37
2022-10-21T14:07:26.964Z,2.00
2022-10-21T14:09:56.806Z,1.20
2022-10-21T14:12:33.870Z,1.33
2022-10-21T14:15:27.833Z,1.50
2022-10-21T14:17:58.081Z,1.63
2022-10-21T14:20:33.828Z,0.90
2022-10-21T14:23:09.194Z,1.47
2022-10-21T14:25:36.538Z,1.37
2022-10-21T14:28:04.657Z,1.00
2022-10-21T14:30:34.117Z,1.50
2022-10-21T14:33:02.806Z,1.33
2022-10-21T14:35:31.581Z,1.90
2022-10-21T14:38:00.486Z,1.23
2022-10-21T14:40:39.619Z,1.50
2022-10-21T14:43:17.641Z,1.00
2022-10-21T14:45:47.187Z,0.90
2022-10-21T14:48:40.870Z,1.20
2022-10-21T14:51:15.258Z,1.10
2022-10-21T14:53:53.409Z,1.10
2022-10-21T14:56:22.567Z,1.20
2022-10-21T14:58:54.526Z,0.90
2022-10-21T15:01:22.311Z,1.00
2022-10-21T15:04:12.558Z,1.80
2022-10-21T15:06:40.091Z,0.70
2022-10-21T15:09:18.814Z,0.87
2022-10-21T15:11:47.492Z,1.33
2022-10-21T15:14:15.030Z,0.97
2022-10-21T15:16:47.266Z,0.83
2022-10-21T15:19:28.179Z,1.37
2022-10-21T15:21:58.026Z,0.83
2022-10-21T15:24:36.176Z,1.47
2022-10-21T15:27:03.931Z,1.30
2022-10-21T15:29:38.597Z,0.90
2022-10-21T15:32:07.108Z,1.20
2022-10-21T15:34:34.529Z,1.17
2022-10-21T15:37:01.895Z,1.10
2022-10-21T15:39:29.418Z,0.97
2022-10-21T15:41:58.495Z,0.90
2022-10-21T15:44:29.803Z,1.27
2022-10-21T15:47:00.466Z,1.80
2022-10-21T15:49:31.479Z,0.93
2022-10-21T15:51:58.781Z,2.93
2022-10-21T15:54:26.160Z,0.87
2022-10-21T15:56:54.637Z,0.80
2022-10-21T15:59:23.806Z,1.30
2022-10-21T16:01:51.899Z,1.43
2022-10-21T16:04:19.542Z,1.27
2022-10-21T16:06:50.630Z,0.97
2022-10-21T16:09:20.625Z,1.30
2022-10-21T16:11:58.851Z,1.20
2022-10-21T16:14:29.620Z,0.90
2022-10-21T16:17:00.438Z,1.37
2022-10-21T16:19:27.999Z,0.90
2022-10-21T16:21:55.446Z,0.90
2022-10-21T16:24:22.748Z,0.90
2022-10-21T16:26:50.668Z,4.40
2022-10-21T16:29:22.223Z,0.90
2022-10-21T16:31:49.678Z,0.80
2022-10-21T16:34:17.052Z,1.27
2022-10-21T16:36:44.382Z,1.37
2022-10-21T16:39:15.781Z,1.07
2022-10-21T16:41:43.077Z,1.30
2022-10-21T16:44:10.451Z,1.30
2022-10-21T16:46:39.274Z,1.03
2022-10-21T16:49:14.382Z,1.63
2022-10-21T16:51:42.591Z,1.10
2022-10-21T16:54:10.673Z,1.23
2022-10-21T16:56:37.939Z,1.23
2022-10-21T16:59:05.265Z,1.20
2022-10-21T17:01:32.555Z,1.63
2022-10-21T17:03:59.998Z,1.57
2022-10-21T17:06:27.332Z,1.33
2022-10-21T17:08:55.791Z,1.37
2022-10-21T17:11:30.127Z,1.37
2022-10-21T17:13:57.381Z,1.10
2022-10-21T17:16:24.710Z,2.23
2022-10-21T17:18:52.032Z,1.83
2022-10-21T17:21:23.898Z,1.40
2022-10-21T17:23:51.724Z,1.40
2022-10-21T17:26:19.179Z,1.53
2022-10-21T17:28:46.686Z,1.20
2022-10-21T17:31:18.000Z,1.37
2022-10-21T17:33:45.822Z,1.50
2022-10-21T17:36:13.277Z,1.50
2022-10-21T17:38:41.888Z,2.60
2022-10-21T17:41:10.174Z,1.20
2022-10-21T17:43:37.847Z,1.50
2022-10-21T17:46:05.449Z,1.00
2022-10-21T17:48:33.066Z,1.00
2022-10-21T17:51:02.690Z,1.20
2022-10-21T17:53:30.332Z,1.30
2022-10-21T17:56:01.659Z,1.10
2022-10-21T17:58:29.068Z,1.33
2022-10-21T18:00:56.724Z,2.90
2022-10-21T18:03:25.004Z,1.13
2022-10-21T18:05:52.703Z,0.93
2022-10-21T18:08:20.306Z,1.17
2022-10-21T18:10:55.211Z,1.37
2022-10-21T18:13:22.869Z,1.30
2022-10-21T18:15:50.408Z,1.83
2022-10-21T18:18:18.186Z,1.23
2022-10-21T18:20:45.925Z,1.10
2022-10-21T18:23:13.606Z,1.27
2022-10-21T18:25:41.075Z,1.20
2022-10-21T18:28:08.837Z,2.00
2022-10-21T18:30:41.089Z,1.20
2022-10-21T18:33:08.416Z,1.57
2022-10-21T18:35:35.681Z,1.30
2022-10-21T18:38:02.972Z,1.30
2022-10-21T18:40:30.233Z,1.37
2022-10-21T18:42:57.506Z,1.17
2022-10-21T18:45:24.806Z,1.37
2022-10-21T18:47:54.300Z,2.47
2022-10-21T18:50:21.606Z,1.30
2022-10-21T18:52:48.891Z,1.40
2022-10-21T18:55:16.203Z,1.50
2022-10-21T18:57:43.828Z,1.53
2022-10-21T19:00:11.330Z,1.73
2022-10-21T19:02:38.627Z,1.37
2022-10-21T19:05:06.189Z,1.00
2022-10-21T19:07:33.507Z,1.50
2022-10-21T19:10:00.764Z,1.33
2022-10-21T19:12:28.147Z,1.30
2022-10-21T19:14:55.584Z,1.30
2022-10-21T19:17:23.559Z,1.00
2022-10-21T19:19:51.044Z,0.93
2022-10-21T19:22:18.603Z,0.93
2022-10-21T19:24:45.975Z,1.60
2022-10-21T19:27:13.348Z,4.53
2022-10-21T19:29:40.619Z,1.00
2022-10-21T19:32:07.988Z,1.60
2022-10-21T19:34:35.459Z,2.30
2022-10-21T19:37:02.795Z,1.87
2022-10-21T19:39:30.129Z,1.37
2022-10-21T19:41:57.638Z,2.97
2022-10-21T19:44:24.920Z,1.30
2022-10-21T19:46:52.556Z,1.30
2022-10-21T19:49:19.858Z,1.37
2022-10-21T19:51:47.191Z,1.47
2022-10-21T19:54:14.906Z,1.50
2022-10-21T19:56:42.450Z,1.13
2022-10-21T19:59:10.954Z,1.20
2022-10-21T20:01:38.550Z,1.30
2022-10-21T20:04:06.354Z,1.63
2022-10-21T20:06:34.913Z,1.40
2022-10-21T20:09:04.648Z,1.73
2022-10-21T20:11:32.335Z,1.40
2022-10-21T20:13:59.894Z,1.13
2022-10-21T20:16:37.653Z,1.13
2022-10-21T20:19:05.844Z,1.10
2022-10-21T20:21:33.702Z,1.37
2022-10-21T20:24:01.542Z,1.10
2022-10-21T20:26:29.228Z,1.20
2022-10-21T20:28:56.629Z,1.20
2022-10-21T20:31:24.023Z,1.33
2022-10-21T20:33:52.010Z,1.00
2022-10-21T20:36:20.527Z,1.30
2022-10-21T20:38:48.366Z,1.37
2022-10-21T20:41:17.685Z,1.13
2022-10-21T20:43:45.087Z,1.40
2022-10-21T20:46:13.156Z,2.17
2022-10-21T20:48:41.464Z,1.30
2022-10-21T20:51:10.085Z,0.93
2022-10-21T20:53:39.946Z,1.50
2022-10-21T20:56:08.022Z,1.43
2022-10-21T20:58:36.112Z,3.57
2022-10-21T21:01:10.253Z,1.30
2022-10-21T21:03:41.810Z,1.07
2022-10-21T21:06:09.834Z,1.23
2022-10-21T21:08:39.404Z,1.37
2022-10-21T21:11:11.256Z,1.37
2022-10-21T21:13:43.464Z,1.03
2022-10-21T21:16:12.949Z,1.50
2022-10-21T21:18:40.915Z,1.47
2022-10-21T21:21:09.958Z,1.40
2022-10-21T21:23:38.050Z,1.37
2022-10-21T21:26:07.691Z,1.63
2022-10-21T21:28:36.455Z,1.10
2022-10-21T21:31:04.363Z,1.30
2022-10-21T21:33:31.803Z,1.13
2022-10-21T21:35:59.087Z,1.30
2022-10-21T21:38:27.389Z,1.50
2022-10-21T21:40:55.163Z,1.17
2022-10-21T21:43:22.720Z,1.17
2022-10-21T21:45:50.098Z,3.47
2022-10-21T21:48:18.066Z,1.57
2022-10-21T21:50:46.111Z,1.20
2022-10-21T21:53:14.814Z,1.17
2022-10-21T21:55:42.643Z,1.10
2022-10-21T21:58:10.392Z,1.73
2022-10-21T22:00:37.724Z,1.27
2022-10-21T22:03:05.753Z,1.83
2022-10-21T22:05:33.081Z,1.10
2022-10-21T22:08:01.106Z,2.23
2022-10-21T22:10:28.631Z,1.40
2022-10-21T22:12:56.558Z,1.30
2022-10-21T22:15:48.918Z,1.97
2022-10-21T22:18:11.826Z,1.27
2022-10-21T22:20:42.243Z,1.23
2022-10-21T22:23:09.517Z,1.30
2022-10-21T22:25:36.786Z,1.70
2022-10-21T22:28:04.080Z,1.30
2022-10-21T22:30:31.389Z,1.27
2022-10-21T22:32:58.722Z,1.33
2022-10-21T22:35:27.162Z,1.50
2022-10-21T22:37:54.523Z,1.23
2022-10-21T22:40:21.921Z,0.90
2022-10-21T22:42:49.247Z,1.60
2022-10-21T22:45:16.612Z,1.47
2022-10-21T22:47:43.870Z,1.57
2022-10-21T22:50:11.129Z,1.30
2022-10-21T22:52:38.510Z,1.40
2022-10-21T22:55:06.280Z,1.10
2022-10-21T22:57:33.698Z,1.20
2022-10-21T23:00:00.961Z,1.00
2022-10-21T23:02:28.240Z,2.57
2022-10-21T23:04:55.631Z,1.80
2022-10-21T23:07:22.927Z,1.30
2022-10-21T23:09:51.458Z,2.20
2022-10-21T23:12:18.703Z,1.10
2022-10-21T23:14:45.993Z,1.60
2022-10-21T23:17:13.437Z,2.20
2022-10-21T23:19:40.700Z,1.57
2022-10-21T23:22:07.984Z,1.43
2022-10-21T23:24:35.600Z,1.30
2022-10-21T23:27:02.861Z,0.97
2022-10-21T23:29:30.204Z,1.23
2022-10-21T23:31:57.499Z,1.40
2022-10-21T23:34:24.873Z,1.10
2022-10-21T23:36:52.390Z,1.93
2022-10-21T23:39:19.682Z,1.40
2022-10-21T23:41:47.173Z,1.20
2022-10-21T23:44:14.814Z,1.53
2022-10-21T23:46:42.128Z,1.87
2022-10-21T23:49:09.454Z,1.43
2022-10-21T23:51:36.803Z,1.40
2022-10-21T23:54:04.127Z,1.87
2022-10-21T23:56:32.472Z,1.30
2022-10-21T23:59:01.145Z,1.60
